createdAt,value
2023-03-02T00:02:02.194Z,3.60
2023-03-02T00:04:37.682Z,3.50
2023-03-02T00:07:11.947Z,3.50
2023-03-02T00:09:40.725Z,3.50
2023-03-02T00:12:10.057Z,3.40
2023-03-02T00:14:39.140Z,3.30
2023-03-02T00:17:10.551Z,3.30
2023-03-02T00:19:39.324Z,3.30
2023-03-02T00:22:10.090Z,3.30
2023-03-02T00:24:39.340Z,3.30
2023-03-02T00:27:07.865Z,3.30
2023-03-02T00:29:36.481Z,3.30
2023-03-02T00:32:05.116Z,3.20
2023-03-02T00:34:37.753Z,3.30
2023-03-02T00:37:06.389Z,3.30
2023-03-02T00:39:35.051Z,3.20
2023-03-02T00:42:03.521Z,3.20
2023-03-02T00:44:32.020Z,3.10
2023-03-02T00:47:00.530Z,3.20
2023-03-02T00:49:29.341Z,3.00
2023-03-02T00:51:59.206Z,3.00
2023-03-02T00:54:28.451Z,3.00
2023-03-02T00:56:57.145Z,3.00
2023-03-02T00:59:28.388Z,2.90
2023-03-02T01:02:00.729Z,2.90
2023-03-02T01:04:33.642Z,3.00
2023-03-02T01:07:07.531Z,2.80
2023-03-02T01:09:36.020Z,2.70
2023-03-02T01:12:05.629Z,2.90
2023-03-02T01:14:34.098Z,2.80
2023-03-02T01:17:02.585Z,2.80
2023-03-02T01:19:31.861Z,2.70
2023-03-02T01:22:00.427Z,2.90
2023-03-02T01:24:30.574Z,2.70
2023-03-02T01:26:59.121Z,2.60
2023-03-02T01:29:28.023Z,2.50
2023-03-02T01:31:56.586Z,2.40
2023-03-02T01:34:25.141Z,2.40
2023-03-02T01:36:53.604Z,2.50
2023-03-02T01:39:23.124Z,2.50
2023-03-02T01:41:54.544Z,2.70
2023-03-02T01:44:43.894Z,2.70
2023-03-02T01:47:19.478Z,2.50
2023-03-02T01:49:54.293Z,2.50
2023-03-02T01:52:24.130Z,2.50
2023-03-02T01:54:57.623Z,2.40
2023-03-02T01:57:33.930Z,2.60
2023-03-02T02:00:10.360Z,2.40
2023-03-02T02:02:41.906Z,2.20
2023-03-02T02:05:14.113Z,2.20
2023-03-02T02:07:43.302Z,2.40
2023-03-02T02:10:13.351Z,2.20
2023-03-02T02:12:43.250Z,2.20
2023-03-02T02:15:12.637Z,2.10
2023-03-02T02:17:41.615Z,2.10
2023-03-02T02:20:26.489Z,2.20
2023-03-02T02:23:20.514Z,2.00
2023-03-02T02:26:13.341Z,2.00
2023-03-02T02:28:48.635Z,1.90
2023-03-02T02:31:26.604Z,1.90
2023-03-02T02:34:03.100Z,2.00
2023-03-02T02:36:38.686Z,1.90
2023-03-02T02:39:12.974Z,1.90
2023-03-02T02:41:44.898Z,1.90
2023-03-02T02:44:18.414Z,1.90
2023-03-02T02:46:47.882Z,1.80
2023-03-02T02:49:30.592Z,1.80
2023-03-02T02:52:00.053Z,1.90
2023-03-02T02:54:31.296Z,1.80
2023-03-02T02:57:05.048Z,2.00
2023-03-02T02:59:40.121Z,1.90
2023-03-02T03:02:12.157Z,2.00
2023-03-02T03:04:40.728Z,2.10
2023-03-02T03:07:17.509Z,1.90
2023-03-02T03:09:50.171Z,2.00
2023-03-02T03:12:25.461Z,1.90
2023-03-02T03:14:55.552Z,2.00
2023-03-02T03:17:24.032Z,2.00
2023-03-02T03:19:52.607Z,1.90
2023-03-02T03:22:21.154Z,2.00
2023-03-02T03:24:49.632Z,1.90
2023-03-02T03:27:19.961Z,2.10
2023-03-02T03:29:49.181Z,1.90
2023-03-02T03:32:17.965Z,2.00
2023-03-02T03:34:46.622Z,1.90
2023-03-02T03:37:19.227Z,2.00
2023-03-02T03:39:48.431Z,2.00
2023-03-02T03:42:17.342Z,2.00
2023-03-02T03:44:47.561Z,2.00
2023-03-02T03:47:16.163Z,2.00
2023-03-02T03:49:44.700Z,2.00
2023-03-02T03:52:13.153Z,2.10
2023-03-02T03:54:41.894Z,1.90
2023-03-02T03:57:12.198Z,1.80
2023-03-02T03:59:40.761Z,1.80
2023-03-02T04:02:11.099Z,1.70
2023-03-02T04:04:39.766Z,1.80
2023-03-02T04:07:08.249Z,1.70
2023-03-02T04:09:38.066Z,1.70
2023-03-02T04:12:08.890Z,1.70
2023-03-02T04:14:37.636Z,1.50
2023-03-02T04:17:08.224Z,1.50
2023-03-02T04:19:38.023Z,1.50
2023-03-02T04:22:06.754Z,1.50
2023-03-02T04:24:36.353Z,1.50
2023-03-02T04:27:05.384Z,1.50
2023-03-02T04:29:34.188Z,1.50
2023-03-02T04:32:02.855Z,1.50
2023-03-02T04:34:31.637Z,1.50
2023-03-02T04:37:02.258Z,1.60
2023-03-02T04:39:30.795Z,1.60
2023-03-02T04:41:59.294Z,1.70
2023-03-02T04:44:27.738Z,1.60
2023-03-02T04:46:57.106Z,1.60
2023-03-02T04:49:25.653Z,1.60
2023-03-02T04:51:54.163Z,1.70
2023-03-02T04:54:27.553Z,1.70
2023-03-02T04:56:57.048Z,1.60
2023-03-02T04:59:28.727Z,1.60
2023-03-02T05:02:01.916Z,1.70
2023-03-02T05:04:31.693Z,1.70
2023-03-02T05:07:00.604Z,1.60
2023-03-02T05:09:30.981Z,1.60
2023-03-02T05:12:02.508Z,1.60
2023-03-02T05:14:32.171Z,1.60
2023-03-02T05:17:01.305Z,1.50
2023-03-02T05:19:30.111Z,1.50
2023-03-02T05:21:58.607Z,1.50
2023-03-02T05:24:27.530Z,1.50
2023-03-02T05:26:57.502Z,1.50
2023-03-02T05:29:25.984Z,1.50
2023-03-02T05:31:54.518Z,1.50
2023-03-02T05:34:23.110Z,1.70
2023-03-02T05:36:51.844Z,1.60
2023-03-02T05:39:20.358Z,1.60
2023-03-02T05:41:48.838Z,1.60
2023-03-02T05:44:18.874Z,1.70
2023-03-02T05:46:47.809Z,1.60
2023-03-02T05:49:16.230Z,1.60
2023-03-02T05:51:44.953Z,1.70
2023-03-02T05:54:13.523Z,1.70
2023-03-02T05:56:42.175Z,1.60
2023-03-02T05:59:10.756Z,1.60
2023-03-02T06:01:40.857Z,1.60
2023-03-02T06:04:09.468Z,1.60
2023-03-02T06:06:38.510Z,1.60
2023-03-02T06:09:07.374Z,1.60
2023-03-02T06:11:35.981Z,1.60
2023-03-02T06:14:04.630Z,1.80
2023-03-02T06:16:34.334Z,1.70
2023-03-02T06:19:04.876Z,1.70
2023-03-02T06:21:34.024Z,1.70
2023-03-02T06:24:02.916Z,1.70
2023-03-02T06:26:31.822Z,1.80
2023-03-02T06:29:00.730Z,1.80
2023-03-02T06:31:29.666Z,1.80
2023-03-02T06:33:58.330Z,1.70
2023-03-02T06:36:28.937Z,1.70
2023-03-02T06:38:57.599Z,1.70
2023-03-02T06:41:26.377Z,1.70
2023-03-02T06:43:55.012Z,2.00
2023-03-02T06:46:23.570Z,2.10
2023-03-02T06:48:52.528Z,2.50
2023-03-02T06:51:21.162Z,2.40
2023-03-02T06:53:51.814Z,2.60
2023-03-02T06:56:20.518Z,2.70
2023-03-02T06:58:49.048Z,3.00
2023-03-02T07:01:18.626Z,3.20
2023-03-02T07:03:59.333Z,3.40
2023-03-02T07:06:28.241Z,3.60
2023-03-02T07:08:58.217Z,4.00
2023-03-02T07:11:26.867Z,4.10
2023-03-02T07:13:55.371Z,4.40
2023-03-02T07:16:23.957Z,4.60
2023-03-02T07:18:52.730Z,5.00
2023-03-02T07:21:21.654Z,5.20
2023-03-02T07:23:50.288Z,5.50
2023-03-02T07:26:20.620Z,5.80
2023-03-02T07:28:49.065Z,6.10
2023-03-02T07:31:17.650Z,6.30
2023-03-02T07:33:46.183Z,6.60
2023-03-02T07:36:14.727Z,6.90
2023-03-02T07:38:43.212Z,7.20
2023-03-02T07:41:12.430Z,7.40
2023-03-02T07:43:42.379Z,7.70
2023-03-02T07:46:11.330Z,8.00
2023-03-02T07:48:39.944Z,8.30
2023-03-02T07:51:09.316Z,8.60
2023-03-02T07:53:38.230Z,8.90
2023-03-02T07:56:12.244Z,9.20
2023-03-02T07:58:42.380Z,9.50
2023-03-02T08:01:11.228Z,9.70
2023-03-02T08:03:40.315Z,10.00
2023-03-02T08:06:12.437Z,10.20
2023-03-02T08:08:41.172Z,10.40
2023-03-02T08:11:12.456Z,10.50
2023-03-02T08:13:43.218Z,10.70
2023-03-02T08:16:15.152Z,10.90
2023-03-02T08:18:44.732Z,11.00
2023-03-02T08:21:16.413Z,11.20
2023-03-02T08:23:45.370Z,11.30
2023-03-02T08:26:17.404Z,11.30
2023-03-02T08:28:48.135Z,11.40
2023-03-02T08:31:16.896Z,11.30
2023-03-02T08:33:46.070Z,11.30
2023-03-02T08:36:17.689Z,11.40
2023-03-02T08:38:47.863Z,11.50
2023-03-02T08:41:19.228Z,11.40
2023-03-02T08:43:50.394Z,11.40
2023-03-02T08:46:20.331Z,11.40
2023-03-02T08:48:51.226Z,11.30
2023-03-02T08:51:22.335Z,11.10
2023-03-02T08:53:55.142Z,11.20
2023-03-02T08:56:26.563Z,11.50
2023-03-02T08:59:01.707Z,11.60
2023-03-02T09:01:33.606Z,11.70
2023-03-02T09:04:04.213Z,12.00
2023-03-02T09:06:36.498Z,12.20
2023-03-02T09:09:06.700Z,12.40
2023-03-02T09:11:36.190Z,12.50
2023-03-02T09:14:06.453Z,12.70
2023-03-02T09:16:35.130Z,12.90
2023-03-02T09:19:03.951Z,13.00
2023-03-02T09:21:32.882Z,12.80
2023-03-02T09:24:01.498Z,12.90
2023-03-02T09:26:30.197Z,13.30
2023-03-02T09:28:58.823Z,13.80
2023-03-02T09:31:30.374Z,14.20
2023-03-02T09:33:59.092Z,14.60
2023-03-02T09:36:28.729Z,14.90
2023-03-02T09:38:57.167Z,15.20
2023-03-02T09:42:00.182Z,15.60
2023-03-02T09:45:13.777Z,16.00
2023-03-02T09:48:01.487Z,16.60
2023-03-02T09:50:35.732Z,17.20
2023-03-02T09:53:42.347Z,17.40
2023-03-02T09:56:17.632Z,17.70
2023-03-02T09:58:57.164Z,17.60
2023-03-02T10:01:39.721Z,17.70
2023-03-02T10:04:23.596Z,17.70
2023-03-02T10:06:58.812Z,17.90
2023-03-02T10:09:27.483Z,17.70
2023-03-02T10:12:22.785Z,17.60
2023-03-02T10:14:58.471Z,17.70
2023-03-02T10:17:55.959Z,17.90
2023-03-02T10:20:34.549Z,17.80
2023-03-02T10:23:24.623Z,18.10
2023-03-02T10:26:01.155Z,18.10
2023-03-02T10:28:39.221Z,18.30
2023-03-02T10:31:13.330Z,18.50
2023-03-02T10:33:43.076Z,18.60
2023-03-02T10:36:25.956Z,18.90
2023-03-02T10:38:56.798Z,18.80
2023-03-02T10:41:33.678Z,19.00
2023-03-02T10:44:09.013Z,19.00
2023-03-02T10:46:42.739Z,19.00
2023-03-02T10:49:30.958Z,19.30
2023-03-02T10:52:07.263Z,19.60
2023-03-02T10:54:36.898Z,19.80
2023-03-02T10:57:28.402Z,20.00
2023-03-02T11:00:03.091Z,20.30
2023-03-02T11:02:38.343Z,20.60
2023-03-02T11:05:28.932Z,20.60
2023-03-02T11:08:00.909Z,21.10
2023-03-02T11:10:32.745Z,21.60
2023-03-02T11:13:03.466Z,21.90
2023-03-02T11:15:44.701Z,22.50
2023-03-02T11:18:30.172Z,22.80
2023-03-02T11:21:04.589Z,22.80
2023-03-02T11:23:57.216Z,23.10
2023-03-02T11:26:32.207Z,23.50
2023-03-02T11:29:05.945Z,23.80
2023-03-02T11:31:43.307Z,24.00
2023-03-02T11:34:27.410Z,24.10
2023-03-02T11:37:21.340Z,24.10
2023-03-02T11:40:14.540Z,24.20
2023-03-02T11:42:45.997Z,24.60
2023-03-02T11:45:23.786Z,24.90
2023-03-02T11:48:03.108Z,25.00
2023-03-02T11:50:37.121Z,24.90
2023-03-02T11:53:12.985Z,25.10
2023-03-02T11:55:48.698Z,25.00
2023-03-02T11:58:21.161Z,24.90
2023-03-02T12:00:51.859Z,25.00
2023-03-02T12:03:38.979Z,25.50
2023-03-02T12:06:26.577Z,25.40
2023-03-02T12:09:11.379Z,25.60
2023-03-02T12:11:46.330Z,25.50
2023-03-02T12:14:38.039Z,25.50
2023-03-02T12:17:21.582Z,25.30
2023-03-02T12:19:54.268Z,25.70
2023-03-02T12:22:32.413Z,25.70
2023-03-02T12:25:25.169Z,26.10
2023-03-02T12:27:56.339Z,26.00
2023-03-02T12:30:30.457Z,25.90
2023-03-02T12:33:20.388Z,26.40
2023-03-02T12:35:57.137Z,26.70
2023-03-02T12:38:33.899Z,26.60
2023-03-02T12:41:35.834Z,26.70
2023-03-02T12:44:43.933Z,26.80
2023-03-02T12:47:27.248Z,26.90
2023-03-02T12:50:01.311Z,27.00
2023-03-02T12:52:32.957Z,27.00
2023-03-02T12:55:08.275Z,27.00
2023-03-02T12:57:47.856Z,27.30
2023-03-02T13:00:22.227Z,27.40
2023-03-02T13:02:53.964Z,27.90
2023-03-02T13:05:25.674Z,28.40
2023-03-02T13:08:02.259Z,28.60
2023-03-02T13:10:37.191Z,28.70
2023-03-02T13:13:18.118Z,28.90
2023-03-02T13:15:53.187Z,29.30
2023-03-02T13:18:23.586Z,28.90
2023-03-02T13:20:54.026Z,28.50
2023-03-02T13:23:22.807Z,28.50
2023-03-02T13:25:54.274Z,27.70
2023-03-02T13:28:31.793Z,26.70
2023-03-02T13:31:05.561Z,26.50
2023-03-02T13:33:36.689Z,26.40
2023-03-02T13:36:05.681Z,26.70
2023-03-02T13:38:38.803Z,27.00
2023-03-02T13:41:08.917Z,27.00
2023-03-02T13:43:41.034Z,26.80
2023-03-02T13:46:36.707Z,26.90
2023-03-02T13:49:11.252Z,26.90
2023-03-02T13:51:43.335Z,27.10
2023-03-02T13:54:22.356Z,27.20
2023-03-02T13:56:53.642Z,27.50
2023-03-02T13:59:23.684Z,27.90
2023-03-02T14:01:53.518Z,27.80
2023-03-02T14:04:24.450Z,27.70
2023-03-02T14:06:54.395Z,27.50
2023-03-02T14:09:23.280Z,27.40
2023-03-02T14:11:56.182Z,27.40
2023-03-02T14:14:28.297Z,27.50
2023-03-02T14:16:58.358Z,27.40
2023-03-02T14:19:27.006Z,27.70
2023-03-02T14:21:55.442Z,27.00
2023-03-02T14:24:24.090Z,25.70
2023-03-02T14:26:52.828Z,25.30
2023-03-02T14:29:27.227Z,25.50
2023-03-02T14:32:00.487Z,25.20
2023-03-02T14:34:29.036Z,25.20
2023-03-02T14:37:01.013Z,25.70
2023-03-02T14:39:36.481Z,26.30
2023-03-02T14:42:05.921Z,26.30
2023-03-02T14:44:34.702Z,25.80
2023-03-02T14:47:04.645Z,25.80
2023-03-02T14:49:33.038Z,25.80
2023-03-02T14:52:06.551Z,26.30
2023-03-02T14:54:43.795Z,26.30
2023-03-02T14:57:20.749Z,25.90
2023-03-02T14:59:49.518Z,26.10
2023-03-02T15:02:25.808Z,26.30
2023-03-02T15:04:57.301Z,26.50
2023-03-02T15:07:28.936Z,26.80
2023-03-02T15:09:58.605Z,26.80
2023-03-02T15:12:27.357Z,26.80
2023-03-02T15:14:55.806Z,26.60
2023-03-02T15:17:25.670Z,26.70
2023-03-02T15:19:54.304Z,26.50
2023-03-02T15:22:22.760Z,26.40
2023-03-02T15:24:51.274Z,26.60
2023-03-02T15:27:20.690Z,26.60
2023-03-02T15:29:49.364Z,26.60
2023-03-02T15:32:18.636Z,26.70
2023-03-02T15:34:49.333Z,26.80
2023-03-02T15:37:17.879Z,26.70
2023-03-02T15:39:46.368Z,26.10
2023-03-02T15:42:14.755Z,25.10
2023-03-02T15:44:43.601Z,24.90
2023-03-02T15:47:12.723Z,24.90
2023-03-02T15:49:41.265Z,24.80
2023-03-02T15:52:12.818Z,24.40
2023-03-02T15:54:41.585Z,23.70
2023-03-02T15:57:13.292Z,22.50
2023-03-02T15:59:41.728Z,21.20
2023-03-02T16:02:11.952Z,20.50
2023-03-02T16:04:40.417Z,19.90
2023-03-02T16:07:10.193Z,19.40
2023-03-02T16:09:38.555Z,19.00
2023-03-02T16:12:07.610Z,18.80
2023-03-02T16:14:36.057Z,18.50
2023-03-02T16:17:04.542Z,17.90
2023-03-02T16:19:33.551Z,17.30
2023-03-02T16:22:02.061Z,16.60
2023-03-02T16:24:31.916Z,16.00
2023-03-02T16:27:00.354Z,15.60
2023-03-02T16:29:29.112Z,15.10
2023-03-02T16:31:57.659Z,14.80
2023-03-02T16:34:26.199Z,14.50
2023-03-02T16:36:54.648Z,14.10
2023-03-02T16:39:23.195Z,13.70
2023-03-02T16:41:53.300Z,13.30
2023-03-02T16:44:22.779Z,13.00
2023-03-02T16:46:51.241Z,12.80
2023-03-02T16:49:19.619Z,12.60
2023-03-02T16:51:48.286Z,12.40
2023-03-02T16:54:18.149Z,12.20
2023-03-02T16:56:47.504Z,11.90
2023-03-02T16:59:18.001Z,11.70
2023-03-02T17:01:46.473Z,11.50
2023-03-02T17:04:15.083Z,11.30
2023-03-02T17:07:02.652Z,11.20
2023-03-02T17:09:32.064Z,11.00
2023-03-02T17:12:00.477Z,10.80
2023-03-02T17:14:30.334Z,10.60
2023-03-02T17:16:58.783Z,10.50
2023-03-02T17:19:29.586Z,10.40
2023-03-02T17:21:59.510Z,10.40
2023-03-02T17:24:29.084Z,10.50
2023-03-02T17:26:58.045Z,10.50
2023-03-02T17:29:26.687Z,10.50
2023-03-02T17:31:56.999Z,10.50
2023-03-02T17:34:28.744Z,10.40
2023-03-02T17:36:57.326Z,10.40
2023-03-02T17:39:25.884Z,10.30
2023-03-02T17:41:54.640Z,10.10
2023-03-02T17:44:23.375Z,9.90
2023-03-02T17:46:51.847Z,9.90
2023-03-02T17:49:21.783Z,9.80
2023-03-02T17:51:50.420Z,9.80
2023-03-02T17:54:18.904Z,9.70
2023-03-02T17:56:47.547Z,9.80
2023-03-02T17:59:16.057Z,9.70
2023-03-02T18:01:44.820Z,9.70
2023-03-02T18:04:13.381Z,9.70
2023-03-02T18:06:43.374Z,9.80
2023-03-02T18:09:11.959Z,9.80
2023-03-02T18:11:42.379Z,9.80
2023-03-02T18:14:15.242Z,9.70
2023-03-02T18:16:44.115Z,9.60
2023-03-02T18:19:13.187Z,9.60
2023-03-02T18:21:43.157Z,9.60
2023-03-02T18:24:11.755Z,9.60
2023-03-02T18:26:40.327Z,9.50
2023-03-02T18:29:08.997Z,9.50
2023-03-02T18:31:37.559Z,9.50
2023-03-02T18:34:06.140Z,9.40
2023-03-02T18:36:34.872Z,9.40
2023-03-02T18:39:05.323Z,9.50
2023-03-02T18:41:34.077Z,9.50
2023-03-02T18:44:03.659Z,9.50
2023-03-02T18:46:34.428Z,9.50
2023-03-02T18:49:04.530Z,9.30
2023-03-02T18:51:33.117Z,9.20
2023-03-02T18:54:01.772Z,9.20
2023-03-02T18:56:32.048Z,9.30
2023-03-02T18:59:00.815Z,9.30
2023-03-02T19:01:34.015Z,9.30
2023-03-02T19:04:03.680Z,9.40
2023-03-02T19:06:32.421Z,9.40
2023-03-02T19:09:00.993Z,9.40
2023-03-02T19:11:30.983Z,9.40
2023-03-02T19:14:00.515Z,9.40
2023-03-02T19:16:29.331Z,9.40
2023-03-02T19:18:58.595Z,9.40
2023-03-02T19:21:27.235Z,9.40
2023-03-02T19:23:55.906Z,9.40
2023-03-02T19:26:24.558Z,9.40
2023-03-02T19:28:55.129Z,9.40
2023-03-02T19:31:24.346Z,9.30
2023-03-02T19:33:52.994Z,9.30
2023-03-02T19:36:23.392Z,9.20
2023-03-02T19:38:51.982Z,9.20
2023-03-02T19:41:22.113Z,9.20
2023-03-02T19:43:51.113Z,9.30
2023-03-02T19:46:21.286Z,9.20
2023-03-02T19:48:50.161Z,9.20
2023-03-02T19:51:19.141Z,9.20
2023-03-02T19:53:48.074Z,9.00
2023-03-02T19:56:22.736Z,8.80
2023-03-02T19:58:54.103Z,8.60
2023-03-02T20:01:27.948Z,8.60
2023-03-02T20:03:58.244Z,8.60
2023-03-02T20:06:32.165Z,8.40
2023-03-02T20:09:02.952Z,8.40
2023-03-02T20:11:32.364Z,8.20
2023-03-02T20:14:05.116Z,8.20
2023-03-02T20:16:38.638Z,8.10
2023-03-02T20:19:08.444Z,8.10
2023-03-02T20:21:38.759Z,8.10
2023-03-02T20:24:08.194Z,8.10
2023-03-02T20:26:36.959Z,8.10
2023-03-02T20:29:07.099Z,8.20
2023-03-02T20:31:38.734Z,8.10
2023-03-02T20:34:11.563Z,8.00
2023-03-02T20:36:40.611Z,8.00
2023-03-02T20:39:13.642Z,7.90
2023-03-02T20:41:42.987Z,7.80
2023-03-02T20:44:14.810Z,7.70
2023-03-02T20:46:51.444Z,7.60
2023-03-02T20:49:21.845Z,7.70
2023-03-02T20:51:55.279Z,7.40
2023-03-02T20:54:27.926Z,7.50
2023-03-02T20:56:57.548Z,7.40
2023-03-02T20:59:27.708Z,7.30
2023-03-02T21:01:58.153Z,7.10
2023-03-02T21:04:27.232Z,7.10
2023-03-02T21:06:56.331Z,6.90
2023-03-02T21:09:25.167Z,6.80
2023-03-02T21:11:53.931Z,6.90
2023-03-02T21:14:22.880Z,6.80
2023-03-02T21:16:51.782Z,6.60
2023-03-02T21:19:23.011Z,6.30
2023-03-02T21:21:51.758Z,6.30
2023-03-02T21:24:20.817Z,6.20
2023-03-02T21:26:52.218Z,6.50
2023-03-02T21:29:24.730Z,6.60
2023-03-02T21:31:54.193Z,6.50
2023-03-02T21:34:24.732Z,6.60
2023-03-02T21:36:54.362Z,6.50
2023-03-02T21:39:24.866Z,6.50
2023-03-02T21:41:54.788Z,6.50
2023-03-02T21:44:24.502Z,6.40
2023-03-02T21:46:53.230Z,6.20
2023-03-02T21:49:25.019Z,6.10
2023-03-02T21:51:53.904Z,6.10
2023-03-02T21:54:22.747Z,6.00
2023-03-02T21:56:51.464Z,5.70
2023-03-02T21:59:20.144Z,5.50
2023-03-02T22:01:48.999Z,5.40
2023-03-02T22:04:17.650Z,5.60
2023-03-02T22:06:47.870Z,5.60
2023-03-02T22:09:16.606Z,5.50
2023-03-02T22:11:46.499Z,5.50
2023-03-02T22:14:18.120Z,5.60
2023-03-02T22:16:48.583Z,5.40
2023-03-02T22:19:27.277Z,5.40
2023-03-02T22:22:03.376Z,5.30
2023-03-02T22:24:34.224Z,5.10
2023-03-02T22:27:22.536Z,5.00
2023-03-02T22:29:52.329Z,5.00
2023-03-02T22:32:24.465Z,5.20
2023-03-02T22:34:55.758Z,5.10
2023-03-02T22:37:28.944Z,5.20
2023-03-02T22:40:02.802Z,5.10
2023-03-02T22:42:32.549Z,5.00
2023-03-02T22:45:13.049Z,5.10
2023-03-02T22:47:41.745Z,5.00
2023-03-02T22:50:23.331Z,4.90
2023-03-02T22:52:54.697Z,4.90
2023-03-02T22:55:42.266Z,4.90
2023-03-02T22:58:35.966Z,5.00
2023-03-02T23:01:14.334Z,4.80
2023-03-02T23:03:46.964Z,4.80
2023-03-02T23:06:30.417Z,4.80
2023-03-02T23:09:03.169Z,4.70
2023-03-02T23:11:38.845Z,4.80
2023-03-02T23:14:19.303Z,4.60
2023-03-02T23:16:54.424Z,4.70
2023-03-02T23:19:23.224Z,4.80
2023-03-02T23:21:51.912Z,4.60
2023-03-02T23:24:22.248Z,4.70
2023-03-02T23:26:53.232Z,4.60
2023-03-02T23:29:22.864Z,4.30
2023-03-02T23:31:51.912Z,4.30
2023-03-02T23:34:20.483Z,4.30
2023-03-02T23:36:49.053Z,4.20
2023-03-02T23:39:18.011Z,4.40
2023-03-02T23:41:47.973Z,4.20
2023-03-02T23:44:16.541Z,4.20
2023-03-02T23:46:45.300Z,4.20
2023-03-02T23:49:14.083Z,4.20
2023-03-02T23:51:43.572Z,4.20
2023-03-02T23:54:13.013Z,4.00
2023-03-02T23:56:41.812Z,4.10
2023-03-02T23:59:12.138Z,4.00
